^^
Meteo Knjazevac Station Historical Data
Daily Summary for February 24, 2021 Units:  English    Metric   Both
Daily Weekly Monthly Yearly Custom
  High: Low: Average:
Temperature: 50.8 °F 37.9 °F 44.8 °F
Dew Point: 42.1 °F 37.7 °F 40.3 °F
Humidity: 99% 72% 85%
Wind Speed: 8mph 0mph 3.5mph
Wind Gust: 20mph - -
Wind- - SSE
Pressure: 29.77 in 29.72 in -
Precipitation: 0.00 in    
Historical Graphs
 
 
Tabular Data for February 24, 2021
Time Temperature Dew Point Pressure Wind Wind Speed Wind Gust Humidity Rainfall Rate (Hourly) solar Conditions
00:00 37.9 °F 37.7 °F 29.73 in WSW 3 mph 7 mph 99% 0.00 in 0 W/m2
00:10 37.9 °F 37.7 °F 29.73 in SSW 2 mph 6 mph 99% 0.00 in 0 W/m2
00:20 37.9 °F 37.7 °F 29.73 in North 5 mph 7 mph 99% 0.00 in 0 W/m2
00:30 38.2 °F 37.9 °F 29.74 in NNE 7 mph 10 mph 99% 0.00 in 0 W/m2
00:40 39.6 °F 39.4 °F 29.73 in SSW 2 mph 11 mph 99% 0.00 in 0 W/m2
00:50 41.4 °F 41.2 °F 29.73 in SSE 3 mph 12 mph 99% 0.00 in 0 W/m2
01:00 41.9 °F 40.6 °F 29.73 in ESE 6 mph 11 mph 95% 0.00 in 0 W/m2
01:10 40.9 °F 39.6 °F 29.73 in NNE 6 mph 8 mph 95% 0.00 in 0 W/m2
01:20 41 °F 39.7 °F 29.73 in NNE 6 mph 11 mph 95% 0.00 in 0 W/m2
01:30 41.4 °F 40.3 °F 29.74 in NNE 5 mph 13 mph 96% 0.00 in 0 W/m2
01:40 41.8 °F 40.5 °F 29.73 in NNE 7 mph 12 mph 95% 0.00 in 0 W/m2
01:50 41.4 °F 40 °F 29.74 in NNE 3 mph 9 mph 95% 0.00 in 0 W/m2
02:00 41.4 °F 40.4 °F 29.74 in NNE 5 mph 14 mph 96% 0.00 in 0 W/m2
02:10 41.5 °F 40.5 °F 29.74 in NNE 3 mph 9 mph 96% 0.00 in 0 W/m2
02:20 41.7 °F 41.2 °F 29.74 in NNE 5 mph 10 mph 98% 0.00 in 0 W/m2
02:30 42.3 °F 41.3 °F 29.74 in NE 5 mph 8 mph 96% 0.00 in 0 W/m2
02:40 43.2 °F 41.6 °F 29.74 in NNE 3 mph 8 mph 94% 0.00 in 0 W/m2
02:50 43.8 °F 41.9 °F 29.73 in NE 2 mph 7 mph 93% 0.00 in 0 W/m2
03:00 44.6 °F 41.8 °F 29.73 in West 1 mph 5 mph 90% 0.00 in 0 W/m2
03:10 44.8 °F 41.7 °F 29.73 in Calm   5 mph 89% 0.00 in 0 W/m2
03:20 44.4 °F 41.7 °F 29.73 in SW 1 mph 8 mph 90% 0.00 in 0 W/m2
03:30 45 °F 41.9 °F 29.73 in SW 5 mph 10 mph 89% 0.00 in 0 W/m2
03:40 45 °F 41.6 °F 29.73 in SSW 3 mph 7 mph 88% 0.00 in 0 W/m2
03:50 44.8 °F 41.4 °F 29.73 in SW 3 mph 8 mph 88% 0.00 in 0 W/m2
04:00 45.1 °F 40.9 °F 29.73 in SW 2 mph 7 mph 85% 0.00 in 0 W/m2
04:10 45 °F 40.7 °F 29.73 in SW 3 mph 10 mph 85% 0.00 in 0 W/m2
04:20 45.2 °F 40.4 °F 29.73 in SSW 6 mph 12 mph 83% 0.00 in 0 W/m2
04:30 45.9 °F 40.4 °F 29.72 in SSW 5 mph 14 mph 81% 0.00 in 0 W/m2
04:40 46 °F 40.2 °F 29.72 in South 2 mph 8 mph 80% 0.00 in 0 W/m2
04:50 46.2 °F 40.4 °F 29.72 in SW 3 mph 9 mph 80% 0.00 in 0 W/m2
05:00 46.6 °F 40.4 °F 29.72 in SW 3 mph 11 mph 79% 0.00 in 0 W/m2
05:10 46.4 °F 40.2 °F 29.72 in West 1 mph 5 mph 79% 0.00 in 0 W/m2
05:20 45.9 °F 39.7 °F 29.73 in North 2 mph 6 mph 79% 0.00 in 0 W/m2
05:30 46.1 °F 39.7 °F 29.73 in WSW 2 mph 14 mph 78% 0.00 in 0 W/m2
05:40 46 °F 39.6 °F 29.73 in NE 5 mph 9 mph 78% 0.00 in 0 W/m2
05:50 45.9 °F 39.4 °F 29.73 in ENE 2 mph 10 mph 78% 0.00 in 0 W/m2
06:00 46.4 °F 39.6 °F 29.74 in ENE 5 mph 8 mph 77% 0.00 in 0 W/m2
06:10 46.4 °F 39.6 °F 29.74 in ENE 3 mph 8 mph 77% 0.00 in 0 W/m2
06:20 46.3 °F 39.5 °F 29.74 in SSE 2 mph 8 mph 77% 0.00 in 0 W/m2
06:30 46 °F 39.6 °F 29.74 in North 1 mph 5 mph 78% 0.00 in 0 W/m2
06:40 46 °F 39.5 °F 29.74 in WNW 2 mph 7 mph 78% 0.00 in 0 W/m2
06:50 45.9 °F 39.5 °F 29.75 in NE 1 mph 6 mph 78% 0.00 in 0 W/m2
07:00 45.7 °F 39.2 °F 29.75 in NNE 2 mph 8 mph 78% 0.00 in 5 W/m2
07:10 45.5 °F 39.4 °F 29.75 in NNW 2 mph 5 mph 79% 0.00 in 6 W/m2
07:20 45.5 °F 39.4 °F 29.75 in SSE 3 mph 5 mph 79% 0.00 in 18 W/m2
07:30 45.7 °F 39.2 °F 29.76 in SE 5 mph 8 mph 78% 0.00 in 38 W/m2
07:40 46 °F 39.6 °F 29.76 in SE 3 mph 9 mph 78% 0.00 in 36 W/m2
07:50 46.2 °F 39.4 °F 29.77 in South 2 mph 6 mph 77% 0.00 in 34 W/m2
08:00 46 °F 39.6 °F 29.77 in SW 3 mph 7 mph 78% 0.00 in 98 W/m2
08:10 46.6 °F 39.8 °F 29.77 in SSW 2 mph 9 mph 77% 0.00 in 102 W/m2
08:20 47.1 °F 40.3 °F 29.76 in SSW 3 mph 6 mph 77% 0.00 in 103 W/m2
08:30 47.6 °F 40.7 °F 29.77 in SW 1 mph 6 mph 77% 0.00 in 162 W/m2
08:40 48.3 °F 40.7 °F 29.77 in SW 3 mph 7 mph 75% 0.00 in 183 W/m2
08:50 49.1 °F 41.5 °F 29.77 in SW 3 mph 8 mph 75% 0.00 in 203 W/m2
09:00 49.8 °F 41.5 °F 29.77 in SSW 6 mph 13 mph 73% 0.00 in 140 W/m2
09:10 50.2 °F 41.5 °F 29.77 in SSW 8 mph 20 mph 72% 0.00 in 179 W/m2
09:20 50.2 °F 41.5 °F 29.77 in SW 5 mph 12 mph 72% 0.00 in 112 W/m2
09:30 50 °F 41.3 °F 29.77 in SW 7 mph 10 mph 72% 0.00 in 280 W/m2
09:40 50.8 °F 42.1 °F 29.77 in SW 6 mph 14 mph 72% 0.00 in 150 W/m2
Knjazevac, Serbia
Compliments of Weather Underground - 2 mb